sensor_id;sensor_type;location;lat;lon;timestamp;pressure;altitude;pressure_sealevel;temperature;humidity
25080;BME280;13071;48.868;9.996;2023-02-28T00:00:09;97158.38;;;-3.06;76.47
25080;BME280;13071;48.868;9.996;2023-02-28T00:02:37;97158.34;;;-2.94;76.05
25080;BME280;13071;48.868;9.996;2023-02-28T00:05:04;97160.22;;;-3.07;76.27
25080;BME280;13071;48.868;9.996;2023-02-28T00:07:31;97153.31;;;-3.08;76.70
25080;BME280;13071;48.868;9.996;2023-02-28T00:09:58;97157.09;;;-3.15;76.84
25080;BME280;13071;48.868;9.996;2023-02-28T00:12:26;97150.19;;;-2.93;76.24
25080;BME280;13071;48.868;9.996;2023-02-28T00:14:53;97150.78;;;-3.02;77.08
25080;BME280;13071;48.868;9.996;2023-02-28T00:17:20;97156.50;;;-3.06;77.09
25080;BME280;13071;48.868;9.996;2023-02-28T00:19:47;97149.25;;;-3.10;78.06
25080;BME280;13071;48.868;9.996;2023-02-28T00:22:14;97147.91;;;-3.13;78.22
25080;BME280;13071;48.868;9.996;2023-02-28T00:24:41;97145.91;;;-3.06;78.46
25080;BME280;13071;48.868;9.996;2023-02-28T00:27:07;97158.16;;;-3.16;78.57
25080;BME280;13071;48.868;9.996;2023-02-28T00:29:36;97142.50;;;-3.06;77.96
25080;BME280;13071;48.868;9.996;2023-02-28T00:32:03;97149.59;;;-2.83;77.80
25080;BME280;13071;48.868;9.996;2023-02-28T00:34:29;97149.03;;;-3.09;78.67
25080;BME280;13071;48.868;9.996;2023-02-28T00:36:56;97148.00;;;-3.08;78.51
25080;BME280;13071;48.868;9.996;2023-02-28T00:39:22;97145.34;;;-2.96;78.73
25080;BME280;13071;48.868;9.996;2023-02-28T00:41:49;97139.25;;;-2.96;78.77
25080;BME280;13071;48.868;9.996;2023-02-28T00:44:16;97149.16;;;-3.03;79.17
25080;BME280;13071;48.868;9.996;2023-02-28T00:46:43;97145.69;;;-3.04;79.75
25080;BME280;13071;48.868;9.996;2023-02-28T00:49:10;97145.22;;;-2.89;79.69
25080;BME280;13071;48.868;9.996;2023-02-28T00:51:36;97138.91;;;-3.00;79.60
25080;BME280;13071;48.868;9.996;2023-02-28T00:54:03;97151.00;;;-2.92;79.65
25080;BME280;13071;48.868;9.996;2023-02-28T00:56:30;97153.19;;;-3.01;80.32
25080;BME280;13071;48.868;9.996;2023-02-28T00:58:56;97142.94;;;-2.97;80.30
25080;BME280;13071;48.868;9.996;2023-02-28T01:01:23;97135.81;;;-2.97;80.24
25080;BME280;13071;48.868;9.996;2023-02-28T01:03:51;97138.47;;;-2.97;80.39
25080;BME280;13071;48.868;9.996;2023-02-28T01:06:17;97133.59;;;-2.88;80.56
25080;BME280;13071;48.868;9.996;2023-02-28T01:08:44;97140.28;;;-2.97;81.14
25080;BME280;13071;48.868;9.996;2023-02-28T01:11:12;97139.72;;;-2.99;80.63
25080;BME280;13071;48.868;9.996;2023-02-28T01:13:40;97137.28;;;-2.89;80.56
25080;BME280;13071;48.868;9.996;2023-02-28T01:16:06;97129.56;;;-2.79;80.97
25080;BME280;13071;48.868;9.996;2023-02-28T01:18:33;97137.06;;;-2.88;80.87
25080;BME280;13071;48.868;9.996;2023-02-28T01:21:04;97126.00;;;-2.85;80.70
25080;BME280;13071;48.868;9.996;2023-02-28T01:23:31;97134.28;;;-2.81;80.80
25080;BME280;13071;48.868;9.996;2023-02-28T01:26:04;97122.31;;;-2.84;80.42
25080;BME280;13071;48.868;9.996;2023-02-28T01:28:30;97132.09;;;-2.84;80.77
25080;BME280;13071;48.868;9.996;2023-02-28T01:30:57;97132.00;;;-2.89;81.18
25080;BME280;13071;48.868;9.996;2023-02-28T01:33:24;97128.56;;;-3.01;81.11
25080;BME280;13071;48.868;9.996;2023-02-28T01:35:57;97131.44;;;-3.03;81.76
25080;BME280;13071;48.868;9.996;2023-02-28T01:38:26;97124.03;;;-2.89;81.37
25080;BME280;13071;48.868;9.996;2023-02-28T01:40:53;97120.50;;;-3.07;81.02
25080;BME280;13071;48.868;9.996;2023-02-28T01:43:23;97129.81;;;-2.92;81.40
25080;BME280;13071;48.868;9.996;2023-02-28T01:45:50;97130.41;;;-3.02;81.16
25080;BME280;13071;48.868;9.996;2023-02-28T01:48:17;97121.88;;;-3.04;81.77
25080;BME280;13071;48.868;9.996;2023-02-28T01:50:46;97118.63;;;-2.94;81.12
25080;BME280;13071;48.868;9.996;2023-02-28T01:53:16;97128.88;;;-2.98;81.39
25080;BME280;13071;48.868;9.996;2023-02-28T01:55:48;97129.44;;;-2.84;81.24
25080;BME280;13071;48.868;9.996;2023-02-28T01:58:16;97113.47;;;-3.13;82.17
25080;BME280;13071;48.868;9.996;2023-02-28T02:00:43;97131.19;;;-3.13;82.28
25080;BME280;13071;48.868;9.996;2023-02-28T02:03:12;97125.91;;;-3.25;83.16
25080;BME280;13071;48.868;9.996;2023-02-28T02:05:40;97124.19;;;-3.08;82.36
25080;BME280;13071;48.868;9.996;2023-02-28T02:08:15;97105.31;;;-3.11;82.29
25080;BME280;13071;48.868;9.996;2023-02-28T02:10:44;97112.44;;;-3.12;82.08
25080;BME280;13071;48.868;9.996;2023-02-28T02:13:44;97108.03;;;-2.94;81.70
25080;BME280;13071;48.868;9.996;2023-02-28T02:16:25;97104.47;;;-3.00;82.00
25080;BME280;13071;48.868;9.996;2023-02-28T02:19:02;97108.19;;;-3.36;83.27
25080;BME280;13071;48.868;9.996;2023-02-28T02:21:57;97112.91;;;-3.26;82.64
25080;BME280;13071;48.868;9.996;2023-02-28T02:24:47;97116.47;;;-3.21;82.82
25080;BME280;13071;48.868;9.996;2023-02-28T02:27:23;97105.44;;;-3.41;83.22
25080;BME280;13071;48.868;9.996;2023-02-28T02:36:04;97112.09;;;-3.27;83.50
25080;BME280;13071;48.868;9.996;2023-02-28T02:38:34;97111.75;;;-3.42;84.24
25080;BME280;13071;48.868;9.996;2023-02-28T02:41:09;97110.97;;;-3.31;83.99
25080;BME280;13071;48.868;9.996;2023-02-28T02:43:40;97108.19;;;-3.24;83.67
25080;BME280;13071;48.868;9.996;2023-02-28T02:46:15;97111.75;;;-3.42;84.61
25080;BME280;13071;48.868;9.996;2023-02-28T02:48:44;97108.19;;;-3.36;84.17
25080;BME280;13071;48.868;9.996;2023-02-28T02:51:14;97101.03;;;-3.24;83.78
25080;BME280;13071;48.868;9.996;2023-02-28T02:53:45;97108.06;;;-3.41;84.50
25080;BME280;13071;48.868;9.996;2023-02-28T02:56:15;97109.22;;;-3.25;83.80
25080;BME280;13071;48.868;9.996;2023-02-28T02:58:45;97107.59;;;-3.15;83.41
25080;BME280;13071;48.868;9.996;2023-02-28T03:01:16;97114.50;;;-3.14;83.27
25080;BME280;13071;48.868;9.996;2023-02-28T03:03:54;97105.66;;;-3.31;83.80
25080;BME280;13071;48.868;9.996;2023-02-28T03:06:23;97110.97;;;-3.31;84.43
25080;BME280;13071;48.868;9.996;2023-02-28T03:08:49;97101.28;;;-3.14;84.40
25080;BME280;13071;48.868;9.996;2023-02-28T03:11:16;97099.88;;;-3.39;85.09
25080;BME280;13071;48.868;9.996;2023-02-28T03:13:53;97106.34;;;-3.24;84.42
25080;BME280;13071;48.868;9.996;2023-02-28T03:16:32;97098.72;;;-3.20;84.50
25080;BME280;13071;48.868;9.996;2023-02-28T03:19:10;97105.97;;;-3.16;84.26
25080;BME280;13071;48.868;9.996;2023-02-28T03:21:43;97108.66;;;-3.27;85.27
25080;BME280;13071;48.868;9.996;2023-02-28T03:24:18;97098.63;;;-3.14;84.96
25080;BME280;13071;48.868;9.996;2023-02-28T03:26:49;97097.13;;;-3.10;84.71
25080;BME280;13071;48.868;9.996;2023-02-28T03:29:22;97101.38;;;-2.97;84.29
25080;BME280;13071;48.868;9.996;2023-02-28T03:31:54;97091.84;;;-3.21;84.61
25080;BME280;13071;48.868;9.996;2023-02-28T03:34:29;97098.16;;;-2.99;84.43
25080;BME280;13071;48.868;9.996;2023-02-28T03:37:02;97097.00;;;-3.03;84.25
25080;BME280;13071;48.868;9.996;2023-02-28T03:39:35;97107.00;;;-2.93;83.80
25080;BME280;13071;48.868;9.996;2023-02-28T03:42:07;97100.91;;;-3.06;84.87
25080;BME280;13071;48.868;9.996;2023-02-28T03:44:38;97110.84;;;-3.01;84.64
25080;BME280;13071;48.868;9.996;2023-02-28T03:47:10;97118.88;;;-3.08;84.50
25080;BME280;13071;48.868;9.996;2023-02-28T03:49:42;97104.13;;;-3.03;84.36
25080;BME280;13071;48.868;9.996;2023-02-28T03:52:12;97109.09;;;-3.19;85.19
25080;BME280;13071;48.868;9.996;2023-02-28T03:54:42;97112.56;;;-3.07;84.88
25080;BME280;13071;48.868;9.996;2023-02-28T03:57:13;97112.53;;;-2.95;84.06
25080;BME280;13071;48.868;9.996;2023-02-28T03:59:47;97110.72;;;-3.06;84.84
25080;BME280;13071;48.868;9.996;2023-02-28T04:02:16;97109.44;;;-3.15;85.13
25080;BME280;13071;48.868;9.996;2023-02-28T04:04:43;97112.66;;;-3.13;84.82
25080;BME280;13071;48.868;9.996;2023-02-28T04:07:15;97111.97;;;-3.09;84.79
25080;BME280;13071;48.868;9.996;2023-02-28T04:09:42;97122.69;;;-2.92;84.38
25080;BME280;13071;48.868;9.996;2023-02-28T04:12:09;97119.56;;;-3.24;84.70
25080;BME280;13071;48.868;9.996;2023-02-28T04:14:36;97121.97;;;-3.34;85.89
25080;BME280;13071;48.868;9.996;2023-02-28T04:17:02;97127.84;;;-3.09;85.47
25080;BME280;13071;48.868;9.996;2023-02-28T04:19:29;97126.94;;;-3.14;85.43
25080;BME280;13071;48.868;9.996;2023-02-28T04:21:55;97123.72;;;-3.16;86.23
25080;BME280;13071;48.868;9.996;2023-02-28T04:24:26;97123.25;;;-3.13;85.43
25080;BME280;13071;48.868;9.996;2023-02-28T04:26:54;97124.41;;;-3.09;84.98
25080;BME280;13071;48.868;9.996;2023-02-28T04:29:23;97123.63;;;-3.21;85.56
25080;BME280;13071;48.868;9.996;2023-02-28T04:31:50;97120.72;;;-3.20;85.91
25080;BME280;13071;48.868;9.996;2023-02-28T04:34:18;97124.63;;;-2.99;84.85
25080;BME280;13071;48.868;9.996;2023-02-28T04:36:45;97128.34;;;-3.12;85.60
25080;BME280;13071;48.868;9.996;2023-02-28T04:39:14;97127.59;;;-2.84;84.33
25080;BME280;13071;48.868;9.996;2023-02-28T04:41:42;97124.88;;;-3.12;85.55
25080;BME280;13071;48.868;9.996;2023-02-28T04:44:08;97122.34;;;-3.07;85.20
25080;BME280;13071;48.868;9.996;2023-02-28T04:46:35;97125.53;;;-2.82;84.62
25080;BME280;13071;48.868;9.996;2023-02-28T04:49:01;97123.72;;;-2.93;84.62
25080;BME280;13071;48.868;9.996;2023-02-28T04:51:28;97127.84;;;-2.85;84.42
25080;BME280;13071;48.868;9.996;2023-02-28T04:53:55;97124.72;;;-2.82;84.16
25080;BME280;13071;48.868;9.996;2023-02-28T04:56:22;97111.69;;;-2.72;83.62
25080;BME280;13071;48.868;9.996;2023-02-28T04:58:50;97112.72;;;-2.62;82.88
25080;BME280;13071;48.868;9.996;2023-02-28T05:01:21;97114.19;;;-2.66;83.52
25080;BME280;13071;48.868;9.996;2023-02-28T05:03:49;97125.06;;;-2.79;83.31
25080;BME280;13071;48.868;9.996;2023-02-28T05:06:15;97137.16;;;-2.83;84.19
25080;BME280;13071;48.868;9.996;2023-02-28T05:08:43;97133.00;;;-2.67;84.14
25080;BME280;13071;48.868;9.996;2023-02-28T05:11:15;97137.72;;;-2.69;83.23
25080;BME280;13071;48.868;9.996;2023-02-28T05:13:42;97128.97;;;-2.70;82.68
25080;BME280;13071;48.868;9.996;2023-02-28T05:16:10;97138.91;;;-2.77;83.67
25080;BME280;13071;48.868;9.996;2023-02-28T05:18:37;97124.63;;;-2.87;83.84
25080;BME280;13071;48.868;9.996;2023-02-28T05:21:04;97130.69;;;-2.75;83.47
25080;BME280;13071;48.868;9.996;2023-02-28T05:23:31;97116.22;;;-2.96;84.05
25080;BME280;13071;48.868;9.996;2023-02-28T05:25:57;97130.38;;;-2.79;83.23
25080;BME280;13071;48.868;9.996;2023-02-28T05:28:24;97119.78;;;-2.79;83.71
25080;BME280;13071;48.868;9.996;2023-02-28T05:30:50;97131.06;;;-2.83;83.27
25080;BME280;13071;48.868;9.996;2023-02-28T05:33:18;97125.78;;;-2.83;84.38
25080;BME280;13071;48.868;9.996;2023-02-28T05:35:45;97131.19;;;-2.78;84.49
25080;BME280;13071;48.868;9.996;2023-02-28T05:38:12;97122.84;;;-2.70;83.46
25080;BME280;13071;48.868;9.996;2023-02-28T05:40:38;97120.91;;;-2.75;83.77
25080;BME280;13071;48.868;9.996;2023-02-28T05:43:05;97139.69;;;-2.76;83.56
25080;BME280;13071;48.868;9.996;2023-02-28T05:45:32;97138.09;;;-2.77;83.38
25080;BME280;13071;48.868;9.996;2023-02-28T05:47:58;97141.31;;;-2.87;83.64
25080;BME280;13071;48.868;9.996;2023-02-28T05:50:27;97136.72;;;-2.91;84.01
25080;BME280;13071;48.868;9.996;2023-02-28T05:52:53;97117.59;;;-2.82;83.73
25080;BME280;13071;48.868;9.996;2023-02-28T05:55:20;97133.25;;;-2.80;83.75
25080;BME280;13071;48.868;9.996;2023-02-28T05:57:46;97131.44;;;-3.03;84.26
25080;BME280;13071;48.868;9.996;2023-02-28T06:00:13;97142.03;;;-2.91;84.62
25080;BME280;13071;48.868;9.996;2023-02-28T06:02:43;97136.59;;;-2.85;83.32
25080;BME280;13071;48.868;9.996;2023-02-28T06:05:12;97144.31;;;-2.95;84.04
25080;BME280;13071;48.868;9.996;2023-02-28T06:07:41;97141.88;;;-2.85;83.94
25080;BME280;13071;48.868;9.996;2023-02-28T06:10:09;97143.28;;;-2.94;83.96
25080;BME280;13071;48.868;9.996;2023-02-28T06:12:36;97144.31;;;-2.95;83.77
25080;BME280;13071;48.868;9.996;2023-02-28T06:15:03;97154.31;;;-2.85;83.93
25080;BME280;13071;48.868;9.996;2023-02-28T06:17:30;97163.44;;;-2.81;83.58
25080;BME280;13071;48.868;9.996;2023-02-28T06:19:57;97160.09;;;-2.88;84.15
25080;BME280;13071;48.868;9.996;2023-02-28T06:22:23;97162.41;;;-2.92;84.26
25080;BME280;13071;48.868;9.996;2023-02-28T06:24:51;97164.09;;;-2.86;84.23
25080;BME280;13071;48.868;9.996;2023-02-28T06:27:19;97165.50;;;-2.83;83.80
25080;BME280;13071;48.868;9.996;2023-02-28T06:29:47;97165.28;;;-2.82;83.87
25080;BME280;13071;48.868;9.996;2023-02-28T06:32:13;97169.41;;;-2.74;83.19
25080;BME280;13071;48.868;9.996;2023-02-28T06:34:40;97166.66;;;-2.79;82.98
25080;BME280;13071;48.868;9.996;2023-02-28T06:37:06;97168.03;;;-2.88;83.91
25080;BME280;13071;48.868;9.996;2023-02-28T06:39:33;97171.81;;;-2.84;83.76
25080;BME280;13071;48.868;9.996;2023-02-28T06:42:01;97169.19;;;-2.73;83.35
25080;BME280;13071;48.868;9.996;2023-02-28T06:44:28;97169.19;;;-2.73;83.30
25080;BME280;13071;48.868;9.996;2023-02-28T06:47:00;97169.88;;;-2.77;83.91
25080;BME280;13071;48.868;9.996;2023-02-28T06:49:28;97168.25;;;-2.67;83.73
25080;BME280;13071;48.868;9.996;2023-02-28T06:51:55;97178.25;;;-2.57;83.19
25080;BME280;13071;48.868;9.996;2023-02-28T06:54:21;97165.13;;;-2.64;83.37
25080;BME280;13071;48.868;9.996;2023-02-28T06:56:48;97168.09;;;-2.48;83.16
25080;BME280;13071;48.868;9.996;2023-02-28T06:59:16;97175.50;;;-2.62;82.98
25080;BME280;13071;48.868;9.996;2023-02-28T07:01:43;97167.72;;;-2.40;82.57
25080;BME280;13071;48.868;9.996;2023-02-28T07:04:09;97173.34;;;-2.25;81.72
25080;BME280;13071;48.868;9.996;2023-02-28T07:06:36;97182.06;;;-2.53;82.46
25080;BME280;13071;48.868;9.996;2023-02-28T07:09:02;97184.81;;;-2.48;82.03
25080;BME280;13071;48.868;9.996;2023-02-28T07:11:30;97188.22;;;-2.24;82.00
25080;BME280;13071;48.868;9.996;2023-02-28T07:13:57;97184.53;;;-2.23;81.47
25080;BME280;13071;48.868;9.996;2023-02-28T07:16:25;97188.19;;;-2.12;80.35
25080;BME280;13071;48.868;9.996;2023-02-28T07:18:52;97197.28;;;-2.08;80.94
25080;BME280;13071;48.868;9.996;2023-02-28T07:21:19;97199.13;;;-2.09;80.28
25080;BME280;13071;48.868;9.996;2023-02-28T07:23:46;97207.22;;;-2.15;80.33
25080;BME280;13071;48.868;9.996;2023-02-28T07:26:14;97204.09;;;-2.12;80.29
25080;BME280;13071;48.868;9.996;2023-02-28T07:28:43;97196.38;;;-2.14;80.35
25080;BME280;13071;48.868;9.996;2023-02-28T07:31:10;97208.59;;;-2.13;80.36
25080;BME280;13071;48.868;9.996;2023-02-28T07:33:38;97210.19;;;-2.12;80.75
25080;BME280;13071;48.868;9.996;2023-02-28T07:36:07;97207.09;;;-2.09;80.58
25080;BME280;13071;48.868;9.996;2023-02-28T07:38:35;97210.28;;;-2.07;80.31
25080;BME280;13071;48.868;9.996;2023-02-28T07:41:02;97208.50;;;-2.18;80.90
25080;BME280;13071;48.868;9.996;2023-02-28T07:43:30;97216.78;;;-1.86;81.16
25080;BME280;13071;48.868;9.996;2023-02-28T07:46:01;97210.22;;;-1.84;80.48
25080;BME280;13071;48.868;9.996;2023-02-28T07:48:28;97214.03;;;-1.91;80.07
25080;BME280;13071;48.868;9.996;2023-02-28T07:50:56;97208.56;;;-1.73;81.35
25080;BME280;13071;48.868;9.996;2023-02-28T07:53:23;97215.84;;;-1.80;79.64
25080;BME280;13071;48.868;9.996;2023-02-28T07:55:50;97207.66;;;-1.79;79.59
25080;BME280;13071;48.868;9.996;2023-02-28T07:58:16;97213.19;;;-1.80;80.02
25080;BME280;13071;48.868;9.996;2023-02-28T08:00:43;97208.56;;;-1.73;80.34
25080;BME280;13071;48.868;9.996;2023-02-28T08:03:11;97213.63;;;-1.71;80.47
25080;BME280;13071;48.868;9.996;2023-02-28T08:05:38;97214.66;;;-1.73;79.37
25080;BME280;13071;48.868;9.996;2023-02-28T08:08:06;97217.47;;;-1.79;79.81
25080;BME280;13071;48.868;9.996;2023-02-28T08:10:34;97222.66;;;-1.56;78.59
25080;BME280;13071;48.868;9.996;2023-02-28T08:13:00;97231.72;;;-1.40;79.46
25080;BME280;13071;48.868;9.996;2023-02-28T08:15:27;97218.53;;;-1.18;78.29
25080;BME280;13071;48.868;9.996;2023-02-28T08:17:53;97217.63;;;-1.41;77.48
25080;BME280;13071;48.868;9.996;2023-02-28T08:20:21;97219.16;;;-1.28;79.34
25080;BME280;13071;48.868;9.996;2023-02-28T08:22:48;97213.84;;;-1.28;77.62
25080;BME280;13071;48.868;9.996;2023-02-28T08:25:16;97215.97;;;-1.30;77.66
25080;BME280;13071;48.868;9.996;2023-02-28T08:27:43;97213.31;;;-1.30;78.01
25080;BME280;13071;48.868;9.996;2023-02-28T08:30:11;97215.88;;;-1.35;77.32
25080;BME280;13071;48.868;9.996;2023-02-28T08:32:38;97214.03;;;-1.35;76.70
25080;BME280;13071;48.868;9.996;2023-02-28T08:35:05;97206.88;;;-1.17;76.69
25080;BME280;13071;48.868;9.996;2023-02-28T08:37:31;97213.78;;;-1.16;76.47
25080;BME280;13071;48.868;9.996;2023-02-28T08:39:58;97206.41;;;-1.14;76.84
25080;BME280;13071;48.868;9.996;2023-02-28T08:42:26;97207.69;;;-1.00;76.65
25080;BME280;13071;48.868;9.996;2023-02-28T08:44:53;97207.84;;;-1.07;74.96
25080;BME280;13071;48.868;9.996;2023-02-28T08:47:19;97219.19;;;-0.95;76.42
25080;BME280;13071;48.868;9.996;2023-02-28T08:49:46;97225.16;;;-1.04;75.61
25080;BME280;13071;48.868;9.996;2023-02-28T08:52:13;97226.44;;;-1.07;75.04
25080;BME280;13071;48.868;9.996;2023-02-28T08:54:39;97223.28;;;-0.87;74.90
25080;BME280;13071;48.868;9.996;2023-02-28T08:57:06;97214.81;;;-0.67;76.07
25080;BME280;13071;48.868;9.996;2023-02-28T08:59:34;97219.53;;;-0.53;74.39
25080;BME280;13071;48.868;9.996;2023-02-28T09:02:01;97222.94;;;-0.57;74.00
25080;BME280;13071;48.868;9.996;2023-02-28T09:04:28;97219.69;;;-0.43;75.25
25080;BME280;13071;48.868;9.996;2023-02-28T09:06:56;97204.34;;;-0.14;74.03
25080;BME280;13071;48.868;9.996;2023-02-28T09:09:22;97211.13;;;-0.06;73.29
25080;BME280;13071;48.868;9.996;2023-02-28T09:11:49;97214.03;;;-0.08;71.99
25080;BME280;13071;48.868;9.996;2023-02-28T09:14:15;97213.50;;;-0.05;72.56
25080;BME280;13071;48.868;9.996;2023-02-28T09:16:44;97206.47;;;0.06;70.85
25080;BME280;13071;48.868;9.996;2023-02-28T09:19:10;97217.47;;;-0.07;71.72
25080;BME280;13071;48.868;9.996;2023-02-28T09:21:37;97212.81;;;0.27;71.85
25080;BME280;13071;48.868;9.996;2023-02-28T09:24:04;97221.56;;;0.22;70.19
25080;BME280;13071;48.868;9.996;2023-02-28T09:26:31;97222.31;;;0.18;70.30
25080;BME280;13071;48.868;9.996;2023-02-28T09:28:57;97225.91;;;0.07;70.66
25080;BME280;13071;48.868;9.996;2023-02-28T09:31:26;97233.56;;;-0.19;70.51
25080;BME280;13071;48.868;9.996;2023-02-28T09:33:56;97218.13;;;0.00;69.45
25080;BME280;13071;48.868;9.996;2023-02-28T09:36:25;97230.78;;;-0.07;69.72
25080;BME280;13071;48.868;9.996;2023-02-28T09:38:53;97217.19;;;-0.11;69.92
25080;BME280;13071;48.868;9.996;2023-02-28T09:41:22;97219.53;;;0.08;68.94
25080;BME280;13071;48.868;9.996;2023-02-28T09:43:52;97220.09;;;0.10;69.51
25080;BME280;13071;48.868;9.996;2023-02-28T09:46:28;97226.69;;;0.07;69.50
25080;BME280;13071;48.868;9.996;2023-02-28T09:49:00;97226.75;;;0.12;70.66
25080;BME280;13071;48.868;9.996;2023-02-28T09:51:34;97225.03;;;0.23;68.97
25080;BME280;13071;48.868;9.996;2023-02-28T09:54:04;97223.28;;;0.33;69.35
25080;BME280;13071;48.868;9.996;2023-02-28T09:56:33;97229.31;;;0.24;68.87
25080;BME280;13071;48.868;9.996;2023-02-28T09:59:05;97232.25;;;0.27;70.19
25080;BME280;13071;48.868;9.996;2023-02-28T10:01:39;97224.78;;;0.24;69.28
25080;BME280;13071;48.868;9.996;2023-02-28T10:04:16;97226.19;;;0.32;68.18
25080;BME280;13071;48.868;9.996;2023-02-28T10:06:55;97227.22;;;0.31;69.43
25080;BME280;13071;48.868;9.996;2023-02-28T10:09:25;97239.16;;;0.50;69.44
25080;BME280;13071;48.868;9.996;2023-02-28T10:11:56;97231.97;;;0.51;68.81
25080;BME280;13071;48.868;9.996;2023-02-28T10:14:26;97231.69;;;0.47;68.91
25080;BME280;13071;48.868;9.996;2023-02-28T10:16:56;97237.34;;;0.29;68.23
25080;BME280;13071;48.868;9.996;2023-02-28T10:19:30;97230.28;;;0.39;68.54
25080;BME280;13071;48.868;9.996;2023-02-28T10:22:01;97231.59;;;0.64;68.08
25080;BME280;13071;48.868;9.996;2023-02-28T10:24:33;97241.06;;;0.55;68.60
25080;BME280;13071;48.868;9.996;2023-02-28T10:27:12;97249.16;;;0.65;68.45
25080;BME280;13071;48.868;9.996;2023-02-28T10:29:40;97252.72;;;0.75;69.31
25080;BME280;13071;48.868;9.996;2023-02-28T10:32:10;97243.16;;;0.79;67.88
25080;BME280;13071;48.868;9.996;2023-02-28T10:34:41;97238.91;;;0.78;66.56
25080;BME280;13071;48.868;9.996;2023-02-28T10:37:08;97246.06;;;0.73;66.77
25080;BME280;13071;48.868;9.996;2023-02-28T10:39:38;97240.16;;;0.71;67.98
25080;BME280;13071;48.868;9.996;2023-02-28T10:42:19;97251.72;;;0.81;66.93
25080;BME280;13071;48.868;9.996;2023-02-28T10:44:46;97244.03;;;0.85;67.82
25080;BME280;13071;48.868;9.996;2023-02-28T10:47:16;97248.00;;;0.82;68.55
25080;BME280;13071;48.868;9.996;2023-02-28T10:49:49;97248.69;;;1.00;66.90
25080;BME280;13071;48.868;9.996;2023-02-28T10:52:33;97245.91;;;1.16;68.08
25080;BME280;13071;48.868;9.996;2023-02-28T10:55:20;97246.97;;;1.15;67.18
25080;BME280;13071;48.868;9.996;2023-02-28T10:57:48;97241.38;;;1.17;66.94
25080;BME280;13071;48.868;9.996;2023-02-28T11:00:17;97246.84;;;1.32;66.26
25080;BME280;13071;48.868;9.996;2023-02-28T11:02:44;97245.97;;;1.26;66.87
25080;BME280;13071;48.868;9.996;2023-02-28T11:05:27;97245.53;;;1.40;66.65
25080;BME280;13071;48.868;9.996;2023-02-28T11:07:56;97239.41;;;1.39;66.67
25080;BME280;13071;48.868;9.996;2023-02-28T11:10:25;97231.44;;;1.44;65.52
25080;BME280;13071;48.868;9.996;2023-02-28T11:12:55;97228.41;;;1.67;64.84
25080;BME280;13071;48.868;9.996;2023-02-28T11:15:24;97234.34;;;1.85;66.67
25080;BME280;13071;48.868;9.996;2023-02-28T11:17:56;97236.34;;;1.57;65.32
25080;BME280;13071;48.868;9.996;2023-02-28T11:20:26;97224.97;;;1.35;66.99
25080;BME280;13071;48.868;9.996;2023-02-28T11:22:55;97229.19;;;1.26;66.73
25080;BME280;13071;48.868;9.996;2023-02-28T11:25:24;97232.31;;;1.55;65.01
25080;BME280;13071;48.868;9.996;2023-02-28T11:27:52;97229.91;;;1.58;64.01
25080;BME280;13071;48.868;9.996;2023-02-28T11:30:34;97219.28;;;1.63;66.23
25080;BME280;13071;48.868;9.996;2023-02-28T11:33:10;97225.00;;;1.82;64.00
25080;BME280;13071;48.868;9.996;2023-02-28T11:35:48;97218.16;;;2.06;64.98
25080;BME280;13071;48.868;9.996;2023-02-28T11:38:15;97222.63;;;1.91;64.57
25080;BME280;13071;48.868;9.996;2023-02-28T11:40:47;97215.78;;;2.10;64.46
25080;BME280;13071;48.868;9.996;2023-02-28T11:43:30;97213.84;;;1.95;63.36
25080;BME280;13071;48.868;9.996;2023-02-28T11:46:09;97218.75;;;2.24;63.95
25080;BME280;13071;48.868;9.996;2023-02-28T11:48:45;97214.78;;;2.31;62.61
25080;BME280;13071;48.868;9.996;2023-02-28T11:51:19;97218.53;;;2.30;63.16
25080;BME280;13071;48.868;9.996;2023-02-28T11:53:55;97214.00;;;2.41;63.33
25080;BME280;13071;48.868;9.996;2023-02-28T11:56:31;97224.00;;;1.98;63.48
25080;BME280;13071;48.868;9.996;2023-02-28T11:59:13;97221.19;;;2.25;64.27
25080;BME280;13071;48.868;9.996;2023-02-28T12:01:58;97217.50;;;2.41;62.61
25080;BME280;13071;48.868;9.996;2023-02-28T12:04:38;97202.78;;;2.44;62.41
25080;BME280;13071;48.868;9.996;2023-02-28T12:07:13;97233.53;;;2.41;61.78
25080;BME280;13071;48.868;9.996;2023-02-28T12:09:49;97204.41;;;2.50;61.70
25080;BME280;13071;48.868;9.996;2023-02-28T12:12:28;97206.53;;;2.43;63.06
25080;BME280;13071;48.868;9.996;2023-02-28T12:15:17;97210.00;;;2.48;64.10
25080;BME280;13071;48.868;9.996;2023-02-28T12:17:58;97211.41;;;2.86;63.54
25080;BME280;13071;48.868;9.996;2023-02-28T12:20:33;97217.03;;;3.00;63.32
25080;BME280;13071;48.868;9.996;2023-02-28T12:23:17;97215.16;;;2.90;62.38
25080;BME280;13071;48.868;9.996;2023-02-28T12:25:52;97212.75;;;2.99;62.78
25080;BME280;13071;48.868;9.996;2023-02-28T12:28:25;97212.50;;;2.95;61.32
25080;BME280;13071;48.868;9.996;2023-02-28T12:30:57;97212.50;;;2.95;63.66
25080;BME280;13071;48.868;9.996;2023-02-28T12:33:28;97218.66;;;2.91;62.34
25080;BME280;13071;48.868;9.996;2023-02-28T12:36:00;97205.75;;;2.52;61.36
25080;BME280;13071;48.868;9.996;2023-02-28T12:38:36;97205.47;;;2.49;62.60
25080;BME280;13071;48.868;9.996;2023-02-28T12:41:10;97210.78;;;2.39;62.96
25080;BME280;13071;48.868;9.996;2023-02-28T12:43:41;97208.41;;;2.57;62.76
25080;BME280;13071;48.868;9.996;2023-02-28T12:46:12;97203.91;;;2.73;62.51
25080;BME280;13071;48.868;9.996;2023-02-28T12:48:42;97204.47;;;2.85;62.74
25080;BME280;13071;48.868;9.996;2023-02-28T12:51:12;97199.38;;;2.69;62.42
25080;BME280;13071;48.868;9.996;2023-02-28T12:53:52;97191.88;;;2.55;62.55
25080;BME280;13071;48.868;9.996;2023-02-28T12:56:30;97210.47;;;2.20;62.58
25080;BME280;13071;48.868;9.996;2023-02-28T12:59:05;97200.31;;;2.22;62.61
25080;BME280;13071;48.868;9.996;2023-02-28T13:01:56;97198.00;;;2.51;63.99
25080;BME280;13071;48.868;9.996;2023-02-28T13:04:42;97190.78;;;2.41;64.27
25080;BME280;13071;48.868;9.996;2023-02-28T13:07:37;97180.66;;;2.84;65.79
25080;BME280;13071;48.868;9.996;2023-02-28T13:10:11;97189.50;;;2.89;61.56
25080;BME280;13071;48.868;9.996;2023-02-28T13:12:47;97184.41;;;2.83;62.64
25080;BME280;13071;48.868;9.996;2023-02-28T13:15:18;97186.03;;;2.94;62.95
25080;BME280;13071;48.868;9.996;2023-02-28T13:17:50;97186.00;;;2.84;63.53
25080;BME280;13071;48.868;9.996;2023-02-28T13:20:19;97194.84;;;2.84;63.09
25080;BME280;13071;48.868;9.996;2023-02-28T13:22:48;97184.66;;;2.91;62.71